createdAt,value
2023-02-21T00:00:19.927Z,58.09
2023-02-21T00:01:19.868Z,58.26
2023-02-21T00:02:19.903Z,58.81
2023-02-21T00:03:19.858Z,58.87
2023-02-21T00:04:19.831Z,59.51
2023-02-21T00:05:19.898Z,59.35
2023-02-21T00:06:19.898Z,59.27
2023-02-21T00:07:19.849Z,59.54
2023-02-21T00:08:19.829Z,59.80
2023-02-21T00:09:19.828Z,59.67
2023-02-21T00:10:19.783Z,60.02
2023-02-21T00:11:19.766Z,59.95
2023-02-21T00:12:19.770Z,60.27
2023-02-21T00:13:19.757Z,60.56
2023-02-21T00:14:19.752Z,61.24
2023-02-21T00:15:19.749Z,61.43
2023-02-21T00:16:19.769Z,61.95
2023-02-21T00:17:19.734Z,62.07
2023-02-21T00:18:19.738Z,62.23
2023-02-21T00:19:20.212Z,62.15
2023-02-21T00:20:19.688Z,62.31
2023-02-21T00:21:19.771Z,62.06
2023-02-21T00:22:19.766Z,61.82
2023-02-21T00:23:19.660Z,61.27
2023-02-21T00:24:19.704Z,61.21
2023-02-21T00:25:19.625Z,61.19
2023-02-21T00:26:19.641Z,60.91
2023-02-21T00:27:19.676Z,60.89
2023-02-21T00:28:19.636Z,60.50
2023-02-21T00:29:19.605Z,60.30
2023-02-21T00:30:19.602Z,60.07
2023-02-21T00:31:19.738Z,59.85
2023-02-21T00:32:19.597Z,59.81
2023-02-21T00:33:19.644Z,59.52
2023-02-21T00:34:19.541Z,59.52
2023-02-21T00:35:19.572Z,59.41
2023-02-21T00:36:19.759Z,59.32
2023-02-21T00:37:19.511Z,59.67
2023-02-21T00:38:19.558Z,59.54
2023-02-21T00:39:19.508Z,59.55
2023-02-21T00:40:19.514Z,59.53
2023-02-21T00:41:19.478Z,59.51
2023-02-21T00:42:19.479Z,59.44
2023-02-21T00:43:19.483Z,59.32
2023-02-21T00:44:19.443Z,59.49
2023-02-21T00:45:19.493Z,59.45
2023-02-21T00:46:19.441Z,59.31
2023-02-21T00:47:19.665Z,59.37
2023-02-21T00:48:19.410Z,59.43
2023-02-21T00:49:19.409Z,59.38
2023-02-21T00:50:19.415Z,59.63
2023-02-21T00:51:19.450Z,59.41
2023-02-21T00:52:19.404Z,59.55
2023-02-21T00:53:19.394Z,59.37
2023-02-21T00:54:19.351Z,59.79
2023-02-21T00:55:19.351Z,59.33
2023-02-21T00:56:19.335Z,59.20
2023-02-21T00:57:19.334Z,59.62
2023-02-21T00:58:19.337Z,59.59
2023-02-21T00:59:19.296Z,59.39
2023-02-21T01:00:19.313Z,59.49
2023-02-21T01:01:19.418Z,59.32
2023-02-21T01:02:19.293Z,59.05
2023-02-21T01:03:19.334Z,58.83
2023-02-21T01:04:19.244Z,58.82
2023-02-21T01:05:19.240Z,58.81
2023-02-21T01:06:19.235Z,58.76
2023-02-21T01:07:19.237Z,58.72
2023-02-21T01:08:19.216Z,58.81
2023-02-21T01:09:19.246Z,58.56
2023-02-21T01:10:19.205Z,58.38
2023-02-21T01:11:19.189Z,58.12
2023-02-21T01:12:19.168Z,57.94
2023-02-21T01:13:19.215Z,57.63
2023-02-21T01:14:19.157Z,57.53
2023-02-21T01:15:19.204Z,57.46
2023-02-21T01:16:19.157Z,57.74
2023-02-21T01:17:19.118Z,57.68
2023-02-21T01:18:19.124Z,57.56
2023-02-21T01:19:19.225Z,57.58
2023-02-21T01:20:19.090Z,57.71
2023-02-21T01:21:19.088Z,57.90
2023-02-21T01:22:19.143Z,58.10
2023-02-21T01:23:19.090Z,58.26
2023-02-21T01:24:19.084Z,58.45
2023-02-21T01:25:19.084Z,58.81
2023-02-21T01:26:19.053Z,58.91
2023-02-21T01:27:19.080Z,59.18
2023-02-21T01:28:19.053Z,59.66
2023-02-21T01:29:19.013Z,60.24
2023-02-21T01:30:19.002Z,60.09
2023-02-21T01:31:19.057Z,60.00
2023-02-21T01:32:18.988Z,59.99
2023-02-21T01:33:19.009Z,60.09
2023-02-21T01:34:19.019Z,60.22
2023-02-21T01:35:18.951Z,60.54
2023-02-21T01:36:18.949Z,60.49
2023-02-21T01:37:19.006Z,61.26
2023-02-21T01:38:18.952Z,61.09
2023-02-21T01:39:18.942Z,61.40
2023-02-21T01:40:18.919Z,61.96
2023-02-21T01:41:18.915Z,62.38
2023-02-21T01:42:18.865Z,62.27
2023-02-21T01:43:18.905Z,62.46
2023-02-21T01:44:18.917Z,62.28
2023-02-21T01:45:18.860Z,62.25
2023-02-21T01:46:18.952Z,61.94
2023-02-21T01:47:18.850Z,61.47
2023-02-21T01:48:18.822Z,61.51
2023-02-21T01:49:18.817Z,61.29
2023-02-21T01:50:18.792Z,60.75
2023-02-21T01:51:18.866Z,60.86
2023-02-21T01:52:18.801Z,60.29
2023-02-21T01:53:18.809Z,60.35
2023-02-21T01:54:18.758Z,60.31
2023-02-21T01:55:18.762Z,60.23
2023-02-21T01:56:18.769Z,60.66
2023-02-21T01:57:18.751Z,60.69
2023-02-21T01:58:18.739Z,60.08
2023-02-21T01:59:18.706Z,59.97
2023-02-21T02:00:18.690Z,60.32
2023-02-21T02:01:18.856Z,60.04
2023-02-21T02:02:18.720Z,59.56
2023-02-21T02:03:18.697Z,59.34
2023-02-21T02:04:18.721Z,59.20
2023-02-21T02:05:18.653Z,59.32
2023-02-21T02:06:18.638Z,59.09
2023-02-21T02:07:18.653Z,59.06
2023-02-21T02:08:18.643Z,59.02
2023-02-21T02:09:18.737Z,58.97
2023-02-21T02:10:18.627Z,58.78
2023-02-21T02:11:18.632Z,58.60
2023-02-21T02:12:18.602Z,58.56
2023-02-21T02:13:18.595Z,58.68
2023-02-21T02:14:18.571Z,58.82
2023-02-21T02:15:18.611Z,58.90
2023-02-21T02:16:18.541Z,59.10
2023-02-21T02:17:18.564Z,59.28
2023-02-21T02:18:18.598Z,59.41
2023-02-21T02:19:18.743Z,59.55
2023-02-21T02:20:18.512Z,59.48
2023-02-21T02:21:18.533Z,59.40
2023-02-21T02:22:18.515Z,59.44
2023-02-21T02:23:18.520Z,59.52
2023-02-21T02:24:18.468Z,59.59
2023-02-21T02:25:18.491Z,59.71
2023-02-21T02:26:18.460Z,59.71
2023-02-21T02:27:18.475Z,59.61
2023-02-21T02:28:18.431Z,59.49
2023-02-21T02:29:18.426Z,59.51
2023-02-21T02:30:18.429Z,59.40
2023-02-21T02:31:18.812Z,59.23
2023-02-21T02:32:18.452Z,59.26
2023-02-21T02:33:18.385Z,59.06
2023-02-21T02:34:18.373Z,58.97
2023-02-21T02:35:18.363Z,58.98
2023-02-21T02:36:18.344Z,58.87
2023-02-21T02:37:18.368Z,58.91
2023-02-21T02:38:18.369Z,58.94
2023-02-21T02:39:18.458Z,59.02
2023-02-21T02:40:18.377Z,59.09
2023-02-21T02:41:18.361Z,59.10
2023-02-21T02:42:18.295Z,59.18
2023-02-21T02:43:18.283Z,59.18
2023-02-21T02:44:18.268Z,59.17
2023-02-21T02:45:18.271Z,58.94
2023-02-21T02:46:18.289Z,58.94
2023-02-21T02:47:18.241Z,58.71
2023-02-21T02:48:18.253Z,58.51
2023-02-21T02:49:18.227Z,58.66
2023-02-21T02:50:18.262Z,58.69
2023-02-21T02:51:18.208Z,58.56
2023-02-21T02:52:18.208Z,58.53
2023-02-21T02:53:18.192Z,58.72
2023-02-21T02:54:18.263Z,58.80
2023-02-21T02:55:18.151Z,58.90
2023-02-21T02:56:18.184Z,58.97
2023-02-21T02:57:18.173Z,59.05
2023-02-21T02:58:18.149Z,58.98
2023-02-21T02:59:18.150Z,59.04
2023-02-21T03:00:18.146Z,59.18
2023-02-21T03:01:18.247Z,59.10
2023-02-21T03:02:18.081Z,59.40
2023-02-21T03:03:18.163Z,59.43
2023-02-21T03:04:18.085Z,59.68
2023-02-21T03:05:18.168Z,60.11
2023-02-21T03:06:18.089Z,60.36
2023-02-21T03:07:18.048Z,60.47
2023-02-21T03:08:18.032Z,60.57
2023-02-21T03:09:18.076Z,60.71
2023-02-21T03:10:18.024Z,60.86
2023-02-21T03:11:18.050Z,60.97
2023-02-21T03:12:17.994Z,61.06
2023-02-21T03:13:17.975Z,61.05
2023-02-21T03:14:17.975Z,61.20
2023-02-21T03:15:18.035Z,61.07
2023-02-21T03:16:18.045Z,61.16
2023-02-21T03:17:17.986Z,61.18
2023-02-21T03:18:17.940Z,61.01
2023-02-21T03:19:17.930Z,61.04
2023-02-21T03:20:17.935Z,61.19
2023-02-21T03:21:18.012Z,61.10
2023-02-21T03:22:17.935Z,61.19
2023-02-21T03:23:17.899Z,62.10
2023-02-21T03:24:17.936Z,61.94
2023-02-21T03:25:17.884Z,61.54
2023-02-21T03:26:17.862Z,61.28
2023-02-21T03:27:17.995Z,61.11
2023-02-21T03:28:17.869Z,61.14
2023-02-21T03:29:17.834Z,61.37
2023-02-21T03:30:17.928Z,61.68
2023-02-21T03:31:18.155Z,62.15
2023-02-21T03:32:17.800Z,62.68
2023-02-21T03:33:17.807Z,63.32
2023-02-21T03:34:17.914Z,64.02
2023-02-21T03:35:17.816Z,64.47
2023-02-21T03:36:17.813Z,64.88
2023-02-21T03:37:17.844Z,65.11
2023-02-21T03:38:17.736Z,65.06
2023-02-21T03:39:17.752Z,65.21
2023-02-21T03:40:17.733Z,65.22
2023-02-21T03:41:17.734Z,65.39
2023-02-21T03:42:17.681Z,65.52
2023-02-21T03:43:17.699Z,65.63
2023-02-21T03:44:17.693Z,66.22
2023-02-21T03:45:17.671Z,66.28
2023-02-21T03:46:17.714Z,66.32
2023-02-21T03:47:17.707Z,65.67
2023-02-21T03:48:26.119Z,65.10
2023-02-21T03:49:17.665Z,65.19
2023-02-21T03:50:17.634Z,65.29
2023-02-21T03:51:17.724Z,65.70
2023-02-21T03:52:17.596Z,66.27
2023-02-21T03:53:17.666Z,66.44
2023-02-21T03:54:17.618Z,65.81
2023-02-21T03:55:17.614Z,66.55
2023-02-21T03:56:17.566Z,67.13
2023-02-21T03:57:17.566Z,67.34
2023-02-21T03:58:17.553Z,67.26
2023-02-21T03:59:17.836Z,67.04
2023-02-21T04:00:17.570Z,67.27
2023-02-21T04:01:17.785Z,67.69
2023-02-21T04:02:17.585Z,67.89
2023-02-21T04:03:17.546Z,67.87
2023-02-21T04:04:17.515Z,68.09
2023-02-21T04:05:17.521Z,68.48
2023-02-21T04:06:17.475Z,68.52
2023-02-21T04:07:17.539Z,68.85
2023-02-21T04:08:17.438Z,69.04
2023-02-21T04:09:17.436Z,69.84
2023-02-21T04:10:17.447Z,70.01
2023-02-21T04:11:17.454Z,70.27
2023-02-21T04:12:17.443Z,70.39
2023-02-21T04:13:17.443Z,70.70
2023-02-21T04:14:17.425Z,70.53
2023-02-21T04:15:17.460Z,70.81
2023-02-21T04:16:17.436Z,70.61
2023-02-21T04:17:17.387Z,70.72
2023-02-21T04:18:17.381Z,70.13
2023-02-21T04:19:17.365Z,69.21
2023-02-21T04:20:17.375Z,69.09
2023-02-21T04:21:17.361Z,69.58
2023-02-21T04:22:17.308Z,69.46
2023-02-21T04:23:17.410Z,69.00
2023-02-21T04:24:17.288Z,68.64
2023-02-21T04:25:17.303Z,69.23
2023-02-21T04:26:17.427Z,69.71
2023-02-21T04:27:17.331Z,69.94
2023-02-21T04:28:17.261Z,70.01
2023-02-21T04:29:17.274Z,70.12
2023-02-21T04:30:17.306Z,70.13
2023-02-21T04:31:17.598Z,70.19
2023-02-21T04:32:17.280Z,70.10
2023-02-21T04:33:17.205Z,70.67
2023-02-21T04:34:17.232Z,71.29
2023-02-21T04:35:17.203Z,71.28
2023-02-21T04:36:17.166Z,71.64
2023-02-21T04:37:17.205Z,71.94
2023-02-21T04:38:17.151Z,72.23
2023-02-21T04:39:17.160Z,72.36
2023-02-21T04:40:17.182Z,72.11
2023-02-21T04:41:17.303Z,71.96
2023-02-21T04:42:17.149Z,71.96
2023-02-21T04:43:17.136Z,71.64
2023-02-21T04:44:17.123Z,71.49
2023-02-21T04:45:17.130Z,71.38
2023-02-21T04:46:17.121Z,71.44
2023-02-21T04:47:17.098Z,71.78
2023-02-21T04:48:17.188Z,71.74
2023-02-21T04:49:17.083Z,71.89
2023-02-21T04:50:17.076Z,71.95
2023-02-21T04:51:17.235Z,71.81
2023-02-21T04:52:17.087Z,71.76
2023-02-21T04:53:17.032Z,71.76
2023-02-21T04:54:17.054Z,71.70
2023-02-21T04:55:17.049Z,71.53
2023-02-21T04:56:17.073Z,71.31
2023-02-21T04:57:17.033Z,71.06
2023-02-21T04:58:16.995Z,70.49
2023-02-21T04:59:17.012Z,70.19
2023-02-21T05:00:16.955Z,69.90
2023-02-21T05:01:17.520Z,69.39
2023-02-21T05:02:16.982Z,69.03
2023-02-21T05:03:16.924Z,68.76
2023-02-21T05:04:17.011Z,69.12
2023-02-21T05:05:16.923Z,68.90
2023-02-21T05:06:16.951Z,68.73
2023-02-21T05:07:16.927Z,68.84
2023-02-21T05:08:16.945Z,68.78
2023-02-21T05:09:16.858Z,68.53
2023-02-21T05:10:16.906Z,68.30
2023-02-21T05:11:17.162Z,68.20
2023-02-21T05:12:16.870Z,67.99
2023-02-21T05:13:16.953Z,67.70
2023-02-21T05:14:16.816Z,67.40
2023-02-21T05:15:16.864Z,67.06
2023-02-21T05:16:16.848Z,66.80
2023-02-21T05:17:16.943Z,66.67
2023-02-21T05:18:16.797Z,66.62
2023-02-21T05:19:16.963Z,66.40
2023-02-21T05:20:16.791Z,66.14
2023-02-21T05:21:17.092Z,66.01
2023-02-21T05:22:16.798Z,66.07
2023-02-21T05:23:16.751Z,65.59
2023-02-21T05:24:16.733Z,64.89
2023-02-21T05:25:16.726Z,64.49
2023-02-21T05:26:16.772Z,64.21
2023-02-21T05:27:16.751Z,63.88
2023-02-21T05:28:16.677Z,63.56
2023-02-21T05:29:16.670Z,63.26
2023-02-21T05:30:16.695Z,63.11
2023-02-21T05:31:17.016Z,62.88
2023-02-21T05:32:16.720Z,62.66
2023-02-21T05:33:16.683Z,62.82
2023-02-21T05:34:16.626Z,63.43
2023-02-21T05:35:16.602Z,63.47
2023-02-21T05:36:16.664Z,63.59
2023-02-21T05:37:16.602Z,63.89
2023-02-21T05:38:16.600Z,63.72
2023-02-21T05:39:16.602Z,63.49
2023-02-21T05:40:16.620Z,63.49
2023-02-21T05:41:16.930Z,63.48
2023-02-21T05:42:16.495Z,63.24
2023-02-21T05:43:16.645Z,63.06
2023-02-21T05:44:16.571Z,62.95
2023-02-21T05:45:16.559Z,62.96
2023-02-21T05:46:16.586Z,62.96
2023-02-21T05:47:16.488Z,63.11
2023-02-21T05:48:16.533Z,63.15
2023-02-21T05:49:16.475Z,63.24
2023-02-21T05:50:16.437Z,63.09
2023-02-21T05:51:17.051Z,62.81
2023-02-21T05:52:16.419Z,62.95
2023-02-21T05:53:16.405Z,63.03
2023-02-21T05:54:16.416Z,63.14
2023-02-21T05:55:16.387Z,63.24
2023-02-21T05:56:16.391Z,63.38
2023-02-21T05:57:16.407Z,63.47
2023-02-21T05:58:16.378Z,63.58
2023-02-21T05:59:16.349Z,63.67
2023-02-21T06:00:16.368Z,63.86
2023-02-21T06:01:16.648Z,64.00
2023-02-21T06:02:16.304Z,64.11
2023-02-21T06:03:16.329Z,64.17
2023-02-21T06:04:16.317Z,64.22
2023-02-21T06:05:16.295Z,64.22
2023-02-21T06:06:16.313Z,64.33
2023-02-21T06:07:16.238Z,64.37
2023-02-21T06:08:16.364Z,64.14
2023-02-21T06:09:16.241Z,64.12
2023-02-21T06:10:16.289Z,64.19
2023-02-21T06:11:16.568Z,64.18
2023-02-21T06:12:16.193Z,63.97
2023-02-21T06:13:16.220Z,63.69
2023-02-21T06:14:16.176Z,63.27
2023-02-21T06:15:16.187Z,62.79
2023-02-21T06:16:16.158Z,62.33
2023-02-21T06:17:16.204Z,62.11
2023-02-21T06:18:16.219Z,62.09
2023-02-21T06:19:16.145Z,62.17
2023-02-21T06:20:16.160Z,62.25
2023-02-21T06:21:16.432Z,62.42
2023-02-21T06:22:16.619Z,62.56
2023-02-21T06:23:16.132Z,62.54
2023-02-21T06:24:16.101Z,62.62
2023-02-21T06:25:16.123Z,62.95
2023-02-21T06:26:16.113Z,63.34
2023-02-21T06:27:16.225Z,64.10
2023-02-21T06:28:16.089Z,64.33
2023-02-21T06:29:16.062Z,64.59
2023-02-21T06:30:16.132Z,65.44
2023-02-21T06:31:16.449Z,66.15
2023-02-21T06:32:16.036Z,66.58
2023-02-21T06:33:16.007Z,66.83
2023-02-21T06:34:15.985Z,66.89
2023-02-21T06:35:16.013Z,67.21
2023-02-21T06:36:15.974Z,67.43
2023-02-21T06:37:15.958Z,67.33
2023-02-21T06:38:16.055Z,66.89
2023-02-21T06:39:15.968Z,66.56
2023-02-21T06:40:15.943Z,66.48
2023-02-21T06:41:16.239Z,66.42
2023-02-21T06:42:15.930Z,66.53
2023-02-21T06:43:16.385Z,66.30
2023-02-21T06:44:15.903Z,66.09
2023-02-21T06:45:15.901Z,65.83
2023-02-21T06:46:15.941Z,65.78
2023-02-21T06:47:15.875Z,65.73
2023-02-21T06:48:15.918Z,65.64
2023-02-21T06:49:15.853Z,65.62
2023-02-21T06:50:15.920Z,65.68
2023-02-21T06:51:16.179Z,65.76
2023-02-21T06:52:15.815Z,65.75
2023-02-21T06:53:15.805Z,65.81
2023-02-21T06:54:15.848Z,65.82
2023-02-21T06:55:16.052Z,65.78
2023-02-21T06:56:15.791Z,65.77
2023-02-21T06:57:15.790Z,65.74
2023-02-21T06:58:15.772Z,65.85
2023-02-21T06:59:15.800Z,65.86
2023-02-21T07:00:15.784Z,65.82
2023-02-21T07:01:16.211Z,65.94
2023-02-21T07:02:15.776Z,66.10
2023-02-21T07:03:15.787Z,66.12
2023-02-21T07:04:15.733Z,66.28
2023-02-21T07:05:16.226Z,66.58
2023-02-21T07:06:15.762Z,66.57
2023-02-21T07:07:15.684Z,66.66
2023-02-21T07:08:15.731Z,66.61
2023-02-21T07:09:15.864Z,66.69
2023-02-21T07:10:15.670Z,66.75
2023-02-21T07:11:16.001Z,66.72
2023-02-21T07:12:15.654Z,66.90
2023-02-21T07:13:15.644Z,67.05
2023-02-21T07:14:15.654Z,67.17
2023-02-21T07:15:15.614Z,67.31
2023-02-21T07:16:15.756Z,67.53
2023-02-21T07:17:15.591Z,67.34
2023-02-21T07:18:15.562Z,67.38
2023-02-21T07:19:15.575Z,67.41
2023-02-21T07:20:15.569Z,67.46
2023-02-21T07:21:15.991Z,67.32
2023-02-21T07:22:15.544Z,67.17
2023-02-21T07:23:15.544Z,67.16
2023-02-21T07:24:15.545Z,67.28
2023-02-21T07:25:15.504Z,67.45
2023-02-21T07:26:15.472Z,67.35
2023-02-21T07:27:15.515Z,67.41
2023-02-21T07:28:15.468Z,67.20
2023-02-21T07:29:15.484Z,67.12
2023-02-21T07:30:15.547Z,67.04
2023-02-21T07:31:18.135Z,66.87
2023-02-21T07:32:15.441Z,66.71
2023-02-21T07:33:15.422Z,66.77
2023-02-21T07:34:15.428Z,66.86
2023-02-21T07:35:15.422Z,66.91
2023-02-21T07:36:15.405Z,66.83
2023-02-21T07:37:15.398Z,67.18
2023-02-21T07:38:15.386Z,67.03
2023-02-21T07:39:15.375Z,67.03
2023-02-21T07:40:15.383Z,66.88
2023-02-21T07:41:15.728Z,66.85
2023-02-21T07:42:15.353Z,67.01
2023-02-21T07:43:15.323Z,67.14
2023-02-21T07:44:15.329Z,67.37
2023-02-21T07:45:15.354Z,67.45
2023-02-21T07:46:15.381Z,67.45
2023-02-21T07:47:15.282Z,67.36
2023-02-21T07:48:15.411Z,67.11
2023-02-21T07:49:15.301Z,66.70
2023-02-21T07:50:15.268Z,66.67
2023-02-21T07:51:15.641Z,66.50
2023-02-21T07:52:15.246Z,66.45
2023-02-21T07:53:15.228Z,66.29
2023-02-21T07:54:15.342Z,66.17
2023-02-21T07:55:15.200Z,66.04
2023-02-21T07:56:15.198Z,65.93
2023-02-21T07:57:15.241Z,65.74
2023-02-21T07:58:15.197Z,65.31
2023-02-21T07:59:15.147Z,65.03
2023-02-21T08:00:15.173Z,64.96
2023-02-21T08:01:15.451Z,64.57
2023-02-21T08:02:15.180Z,64.28
2023-02-21T08:03:15.132Z,63.95
2023-02-21T08:04:15.171Z,64.31
2023-02-21T08:05:15.083Z,64.03
2023-02-21T08:06:15.098Z,63.53
2023-02-21T08:07:15.066Z,63.31
2023-02-21T08:08:15.111Z,63.04
2023-02-21T08:09:15.048Z,62.88
2023-02-21T08:10:17.489Z,62.83
2023-02-21T08:11:15.389Z,62.76
2023-02-21T08:12:15.031Z,62.42
2023-02-21T08:13:15.057Z,62.16
2023-02-21T08:14:15.026Z,61.91
2023-02-21T08:15:15.032Z,61.87
2023-02-21T08:16:15.403Z,61.67
2023-02-21T08:17:14.968Z,61.66
2023-02-21T08:18:15.008Z,61.53
2023-02-21T08:19:14.965Z,61.22
2023-02-21T08:20:14.973Z,61.30
2023-02-21T08:21:15.268Z,61.45
2023-02-21T08:22:14.957Z,61.97
2023-02-21T08:23:14.944Z,62.08
2023-02-21T08:24:14.893Z,62.21
2023-02-21T08:25:14.886Z,62.23
2023-02-21T08:26:14.917Z,62.05
2023-02-21T08:27:14.915Z,61.96
2023-02-21T08:28:14.885Z,61.89
2023-02-21T08:29:14.870Z,62.25
2023-02-21T08:30:14.927Z,62.32
2023-02-21T08:31:15.218Z,62.37
2023-02-21T08:32:14.844Z,61.96
2023-02-21T08:33:14.847Z,61.51
2023-02-21T08:34:14.869Z,60.89
2023-02-21T08:35:14.783Z,60.13
2023-02-21T08:36:14.827Z,59.76
2023-02-21T08:37:14.786Z,59.74
2023-02-21T08:38:14.793Z,59.57
2023-02-21T08:39:14.748Z,59.37
2023-02-21T08:40:14.747Z,59.37
2023-02-21T08:41:15.014Z,58.96
2023-02-21T08:42:14.727Z,58.80
2023-02-21T08:43:14.741Z,58.52
2023-02-21T08:44:14.711Z,58.84
2023-02-21T08:45:14.699Z,59.28
2023-02-21T08:46:14.685Z,59.49
2023-02-21T08:47:14.694Z,59.26
2023-02-21T08:48:14.670Z,58.99
2023-02-21T08:49:14.638Z,58.72
2023-02-21T08:50:14.654Z,58.28
2023-02-21T08:51:14.934Z,58.21
2023-02-21T08:52:14.659Z,57.85
2023-02-21T08:53:15.462Z,57.48
2023-02-21T08:54:14.626Z,57.09
2023-02-21T08:55:15.686Z,56.50
2023-02-21T08:56:14.567Z,56.47
2023-02-21T08:57:14.626Z,55.77
2023-02-21T08:58:14.569Z,54.89
2023-02-21T08:59:14.605Z,54.81
2023-02-21T09:00:14.537Z,54.48
2023-02-21T09:01:14.993Z,54.63
2023-02-21T09:02:14.548Z,54.33
2023-02-21T09:03:14.538Z,55.34
2023-02-21T09:04:14.696Z,56.32
2023-02-21T09:05:14.476Z,56.40
2023-02-21T09:06:14.505Z,56.60
2023-02-21T09:07:14.491Z,56.79
2023-02-21T09:08:14.488Z,56.50
2023-02-21T09:09:14.444Z,56.10
2023-02-21T09:10:14.451Z,56.31
2023-02-21T09:11:14.726Z,56.16
2023-02-21T09:12:14.416Z,55.79
2023-02-21T09:13:14.429Z,55.58
2023-02-21T09:14:14.412Z,55.93
2023-02-21T09:15:14.391Z,56.03
2023-02-21T09:16:14.419Z,55.70
2023-02-21T09:17:14.378Z,55.65
2023-02-21T09:18:14.354Z,55.11
2023-02-21T09:19:14.374Z,54.90
2023-02-21T09:20:14.381Z,55.05
2023-02-21T09:21:14.706Z,55.06
2023-02-21T09:22:14.340Z,55.13
2023-02-21T09:23:14.305Z,54.86
2023-02-21T09:24:14.305Z,54.54
2023-02-21T09:25:14.306Z,54.44
2023-02-21T09:26:14.298Z,54.34
2023-02-21T09:27:14.348Z,54.28
2023-02-21T09:28:14.303Z,54.00
2023-02-21T09:29:14.351Z,53.83
2023-02-21T09:30:14.295Z,54.46
2023-02-21T09:31:14.611Z,54.64
2023-02-21T09:32:14.338Z,54.22
2023-02-21T09:33:14.218Z,53.81
2023-02-21T09:34:14.215Z,53.73
2023-02-21T09:35:14.278Z,53.97
2023-02-21T09:36:14.178Z,53.62
2023-02-21T09:37:14.183Z,53.93
2023-02-21T09:38:14.197Z,54.12
2023-02-21T09:39:14.178Z,54.00
2023-02-21T09:40:14.158Z,53.95
2023-02-21T09:41:14.615Z,53.79
2023-02-21T09:42:14.136Z,53.72
2023-02-21T09:43:14.129Z,53.04
2023-02-21T09:44:14.129Z,52.44
2023-02-21T09:45:14.122Z,52.46
2023-02-21T09:46:14.096Z,52.35
2023-02-21T09:47:14.101Z,52.03
2023-02-21T09:48:14.066Z,51.89
2023-02-21T09:49:14.066Z,52.06
2023-02-21T09:50:14.081Z,52.25
2023-02-21T09:51:14.455Z,52.29
2023-02-21T09:52:14.068Z,51.58
2023-02-21T09:53:14.048Z,50.74
2023-02-21T09:54:13.992Z,51.01
2023-02-21T09:55:14.000Z,50.92
2023-02-21T09:56:14.016Z,51.24
2023-02-21T09:57:14.011Z,51.19
2023-02-21T09:58:13.959Z,51.08
2023-02-21T09:59:14.024Z,51.22
2023-02-21T10:00:13.959Z,49.78
2023-02-21T10:01:14.203Z,49.85
2023-02-21T10:02:13.962Z,49.77
2023-02-21T10:03:13.906Z,48.96
2023-02-21T10:04:13.900Z,48.95
2023-02-21T10:05:13.897Z,49.44
2023-02-21T10:06:13.900Z,49.85
2023-02-21T10:07:13.864Z,49.87
2023-02-21T10:08:13.875Z,49.93
2023-02-21T10:09:13.845Z,50.27
2023-02-21T10:10:13.858Z,50.56
2023-02-21T10:11:14.111Z,49.85
2023-02-21T10:12:13.812Z,49.62
2023-02-21T10:13:13.808Z,50.29
2023-02-21T10:14:13.783Z,50.30
2023-02-21T10:15:13.813Z,50.06
2023-02-21T10:16:13.832Z,50.12
2023-02-21T10:17:13.841Z,49.69
2023-02-21T10:18:13.746Z,50.06
2023-02-21T10:19:13.777Z,50.09
2023-02-21T10:20:13.737Z,49.79
2023-02-21T10:21:13.925Z,49.06
2023-02-21T10:22:13.720Z,48.71
2023-02-21T10:23:13.713Z,48.73
2023-02-21T10:24:13.686Z,48.94
2023-02-21T10:25:13.691Z,48.44
2023-02-21T10:26:13.691Z,48.76
2023-02-21T10:27:13.698Z,49.50
2023-02-21T10:28:13.663Z,49.48
2023-02-21T10:29:13.671Z,49.38
2023-02-21T10:30:13.690Z,49.00
2023-02-21T10:31:13.963Z,48.87
2023-02-21T10:32:13.694Z,49.08
2023-02-21T10:33:13.597Z,49.38
2023-02-21T10:34:13.591Z,49.15
2023-02-21T10:35:13.587Z,49.02
2023-02-21T10:36:13.567Z,49.58
2023-02-21T10:37:13.581Z,49.00
2023-02-21T10:38:13.550Z,49.29
2023-02-21T10:39:13.571Z,49.29
2023-02-21T10:40:13.528Z,49.78
2023-02-21T10:41:13.953Z,49.76
2023-02-21T10:42:13.526Z,49.62
2023-02-21T10:43:13.524Z,49.99
2023-02-21T10:44:13.495Z,49.70
2023-02-21T10:45:13.483Z,50.05
2023-02-21T10:46:13.561Z,50.75
2023-02-21T10:47:13.480Z,50.43
2023-02-21T10:48:13.466Z,50.99
2023-02-21T10:49:13.456Z,49.95
2023-02-21T10:50:13.444Z,49.60
2023-02-21T10:51:13.837Z,49.50
2023-02-21T10:52:13.446Z,49.27
2023-02-21T10:53:13.428Z,49.25
2023-02-21T10:54:13.397Z,49.23
2023-02-21T10:55:26.364Z,49.38
2023-02-21T10:56:13.697Z,47.73
2023-02-21T10:57:13.359Z,47.15
2023-02-21T10:58:13.362Z,46.88
2023-02-21T10:59:13.339Z,46.49
2023-02-21T11:00:13.344Z,46.51
2023-02-21T11:01:13.833Z,47.48
2023-02-21T11:02:13.398Z,48.54
2023-02-21T11:03:13.311Z,48.18
2023-02-21T11:04:13.562Z,48.13
2023-02-21T11:05:13.301Z,48.02
2023-02-21T11:06:13.280Z,47.93
2023-02-21T11:07:13.330Z,47.84
2023-02-21T11:08:13.256Z,47.28
2023-02-21T11:09:13.254Z,46.34
2023-02-21T11:10:13.279Z,47.51
2023-02-21T11:11:13.519Z,47.16
2023-02-21T11:12:13.244Z,47.86
2023-02-21T11:13:13.230Z,47.34
2023-02-21T11:14:13.208Z,46.58
2023-02-21T11:15:13.207Z,47.05
2023-02-21T11:16:13.203Z,46.81
2023-02-21T11:17:14.279Z,47.34
2023-02-21T11:18:13.179Z,46.11
2023-02-21T11:19:13.270Z,45.93
2023-02-21T11:20:13.141Z,45.42
2023-02-21T11:21:14.174Z,45.13
2023-02-21T11:22:13.139Z,45.29
2023-02-21T11:23:13.133Z,43.99
2023-02-21T11:24:13.101Z,44.08
2023-02-21T11:25:13.092Z,43.74
2023-02-21T11:26:13.105Z,43.63
2023-02-21T11:27:13.082Z,42.59
2023-02-21T11:28:13.076Z,41.92
2023-02-21T11:29:13.095Z,40.89
2023-02-21T11:30:13.129Z,40.82
2023-02-21T11:31:13.400Z,40.99
2023-02-21T11:32:13.083Z,40.91
2023-02-21T11:33:13.019Z,41.33
2023-02-21T11:34:13.201Z,42.17
2023-02-21T11:35:12.993Z,42.50
2023-02-21T11:36:13.029Z,42.34
2023-02-21T11:37:13.053Z,42.30
2023-02-21T11:38:12.970Z,42.33
2023-02-21T11:39:12.975Z,41.96
2023-02-21T11:40:12.939Z,41.24
2023-02-21T11:41:13.309Z,40.37
2023-02-21T11:42:12.936Z,39.72
2023-02-21T11:43:12.915Z,40.15
2023-02-21T11:44:12.907Z,39.92
2023-02-21T11:45:12.918Z,41.10
2023-02-21T11:46:13.034Z,40.87
2023-02-21T11:47:12.901Z,40.71
2023-02-21T11:48:12.881Z,40.95
2023-02-21T11:49:12.930Z,40.79
2023-02-21T11:50:12.847Z,39.49
2023-02-21T11:51:13.106Z,39.88
2023-02-21T11:52:12.830Z,41.18
2023-02-21T11:53:12.830Z,41.05
2023-02-21T11:54:12.858Z,40.41
2023-02-21T11:55:12.803Z,40.32
2023-02-21T11:56:12.790Z,40.39
2023-02-21T11:57:12.800Z,40.42
2023-02-21T11:58:12.764Z,39.87
2023-02-21T11:59:12.768Z,39.48
2023-02-21T12:00:12.785Z,38.96
2023-02-21T12:01:13.142Z,39.65
2023-02-21T12:02:12.811Z,39.69
2023-02-21T12:03:12.730Z,40.32
2023-02-21T12:04:12.745Z,41.04
2023-02-21T12:05:12.775Z,40.24
2023-02-21T12:06:12.725Z,40.17
2023-02-21T12:07:12.681Z,40.13
2023-02-21T12:08:12.727Z,39.76
2023-02-21T12:09:12.695Z,39.76
2023-02-21T12:10:12.679Z,38.99
2023-02-21T12:11:12.759Z,39.03
2023-02-21T12:12:12.645Z,38.35
2023-02-21T12:13:12.665Z,38.65
2023-02-21T12:14:12.627Z,38.97
2023-02-21T12:15:12.621Z,39.61
2023-02-21T12:16:12.618Z,39.68
2023-02-21T12:17:14.944Z,39.22
2023-02-21T12:18:12.633Z,39.22
2023-02-21T12:19:12.616Z,39.56
2023-02-21T12:20:13.041Z,40.42
2023-02-21T12:21:12.638Z,39.92
2023-02-21T12:22:12.550Z,38.74
2023-02-21T12:23:12.670Z,38.65
2023-02-21T12:24:12.603Z,38.74
2023-02-21T12:25:12.524Z,38.61
2023-02-21T12:26:12.502Z,38.52
2023-02-21T12:27:12.528Z,37.97
2023-02-21T12:28:14.038Z,38.18
2023-02-21T12:29:12.489Z,37.96
2023-02-21T12:30:13.239Z,37.76
2023-02-21T12:31:12.569Z,37.72
2023-02-21T12:32:12.827Z,38.22
2023-02-21T12:33:12.534Z,37.43
2023-02-21T12:34:12.456Z,37.82
2023-02-21T12:35:12.528Z,37.81
2023-02-21T12:36:12.425Z,39.30
2023-02-21T12:37:12.420Z,38.22
2023-02-21T12:38:12.424Z,37.59
2023-02-21T12:39:12.464Z,37.91
2023-02-21T12:40:12.410Z,37.30
2023-02-21T12:41:12.460Z,37.80
2023-02-21T12:42:12.355Z,37.23
2023-02-21T12:43:12.403Z,37.37
2023-02-21T12:44:12.331Z,37.69
2023-02-21T12:45:12.454Z,37.61
2023-02-21T12:46:12.561Z,36.87
2023-02-21T12:47:12.312Z,37.22
2023-02-21T12:48:12.320Z,37.65
2023-02-21T12:49:12.294Z,37.59
2023-02-21T12:50:12.326Z,37.52
2023-02-21T12:51:12.258Z,37.66
2023-02-21T12:52:12.257Z,37.46